Time;durP1;ratioP1;P1;durP2;ratioP2;P2;SDS_P1;SDS_P2;PMS_P1;PMS_P2;Temp;Humidity;BMP_temperature;BMP_pressure;BME280_temperature;BME280_humidity;BME280_pressure;Samples;Min_cycle;Max_cycle;Signal;HPM_P1;HPM_P2
2023/09/09 00:02:22;;;;;;;9.60;8.60;;;17.30;99.90;;;;;;4994745;28;20947;-53
2023/09/09 00:04:48;;;;;;;16.67;9.50;;;17.20;99.90;;;;;;4993052;28;20488;-53
2023/09/09 00:09:49;;;;;;;9.60;8.77;;;17.00;99.90;;;;;;5009495;28;20482;-53
2023/09/09 00:12:16;;;;;;;11.33;9.00;;;17.00;99.90;;;;;;5005417;28;20460;-53
2023/09/09 00:14:44;;;;;;;11.50;8.73;;;16.90;99.90;;;;;;5013657;28;20521;-54
2023/09/09 00:17:10;;;;;;;9.10;8.20;;;16.90;99.90;;;;;;5017302;28;20458;-53
2023/09/09 00:19:37;;;;;;;15.83;9.33;;;16.80;99.90;;;;;;5012219;28;21055;-53
2023/09/09 00:22:04;;;;;;;9.67;8.00;;;16.70;99.90;;;;;;5011313;28;20535;-53
2023/09/09 00:24:30;;;;;;;9.43;8.47;;;16.70;99.90;;;;;;5013942;28;20498;-53
2023/09/09 00:26:59;;;;;;;11.10;9.03;;;16.60;99.90;;;;;;5014604;28;20521;-53
2023/09/09 00:29:26;;;;;;;15.87;8.57;;;16.60;99.90;;;;;;5013010;28;20490;-52
2023/09/09 00:31:55;;;;;;;10.40;8.60;;;16.60;99.90;;;;;;5013369;28;20495;-53
2023/09/09 00:34:21;;;;;;;8.93;8.00;;;16.60;99.90;;;;;;5009519;28;20456;-53
2023/09/09 00:36:48;;;;;;;9.43;8.50;;;16.50;99.90;;;;;;5011893;28;20550;-55
2023/09/09 00:39:14;;;;;;;12.83;8.90;;;16.60;99.90;;;;;;5009146;28;20595;-53
2023/09/09 00:41:41;;;;;;;11.90;8.50;;;16.50;99.90;;;;;;5012707;28;20468;-55
2023/09/09 00:44:09;;;;;;;10.27;8.20;;;16.50;99.90;;;;;;5013305;28;20475;-53
2023/09/09 00:46:36;;;;;;;10.70;9.13;;;16.50;99.90;;;;;;5011855;28;20466;-55
2023/09/09 00:49:04;;;;;;;10.07;9.07;;;16.50;99.90;;;;;;5012194;28;20570;-55
2023/09/09 00:51:31;;;;;;;13.70;9.03;;;16.50;99.90;;;;;;5008605;28;20460;-54
2023/09/09 00:53:58;;;;;;;9.37;8.30;;;16.50;99.90;;;;;;5009651;28;20546;-54
2023/09/09 00:56:24;;;;;;;9.23;7.90;;;16.50;99.90;;;;;;5011704;28;20566;-54
2023/09/09 00:58:51;;;;;;;10.83;8.43;;;16.50;99.90;;;;;;5012864;28;20525;-54
2023/09/09 01:01:17;;;;;;;8.73;7.87;;;16.50;99.90;;;;;;5004219;28;20487;-54
2023/09/09 01:03:44;;;;;;;9.30;8.40;;;16.50;99.90;;;;;;5011937;28;20502;-54
2023/09/09 01:06:12;;;;;;;10.07;8.83;;;16.50;99.90;;;;;;5004900;28;20456;-52
2023/09/09 01:08:38;;;;;;;11.50;9.33;;;16.50;99.90;;;;;;5005688;28;21032;-52
2023/09/09 01:11:05;;;;;;;10.23;9.23;;;16.50;99.90;;;;;;5011028;28;20464;-53
2023/09/09 01:13:32;;;;;;;11.00;8.77;;;16.50;99.90;;;;;;5010149;28;20456;-53
2023/09/09 01:15:58;;;;;;;15.00;9.60;;;16.40;99.90;;;;;;5011960;28;20526;-53
2023/09/09 01:18:25;;;;;;;10.60;9.50;;;16.40;99.90;;;;;;5011833;28;20546;-54
2023/09/09 01:20:58;;;;;;;10.63;8.50;;;16.40;99.90;;;;;;5012862;28;20458;-54
2023/09/09 01:23:26;;;;;;;10.93;9.33;;;16.40;99.90;;;;;;5006558;28;20839;-53
2023/09/09 01:25:53;;;;;;;9.23;8.33;;;16.30;99.90;;;;;;5011749;28;20571;-53
2023/09/09 01:28:22;;;;;;;9.67;8.60;;;16.40;99.90;;;;;;5010785;28;20511;-53
2023/09/09 01:30:48;;;;;;;9.73;8.73;;;16.30;99.90;;;;;;5007824;28;20459;-54
2023/09/09 01:33:15;;;;;;;9.17;8.30;;;16.30;99.90;;;;;;5012731;28;20883;-54
2023/09/09 01:35:41;;;;;;;10.70;9.60;;;16.30;99.90;;;;;;5015938;28;20566;-54
2023/09/09 01:38:08;;;;;;;9.83;8.83;;;16.20;99.90;;;;;;5008735;28;20515;-54
2023/09/09 01:40:36;;;;;;;20.33;9.27;;;16.30;99.90;;;;;;5001024;28;20559;-52
2023/09/09 01:43:03;;;;;;;16.43;9.80;;;16.20;99.90;;;;;;5011099;28;20506;-54
2023/09/09 01:45:29;;;;;;;11.87;8.60;;;16.20;99.90;;;;;;5012504;28;20444;-54
2023/09/09 01:47:56;;;;;;;10.47;9.37;;;16.20;99.90;;;;;;5011546;28;20498;-54
2023/09/09 01:50:23;;;;;;;9.73;8.83;;;16.20;99.90;;;;;;5005587;28;20506;-54
2023/09/09 01:52:49;;;;;;;16.33;9.70;;;16.20;99.90;;;;;;5009273;28;20486;-53
2023/09/09 01:55:16;;;;;;;9.53;8.63;;;16.20;99.90;;;;;;5006805;28;21199;-53
2023/09/09 01:57:44;;;;;;;13.57;9.60;;;16.20;99.90;;;;;;5011725;28;20506;-54
2023/09/09 02:00:12;;;;;;;9.90;9.00;;;16.20;99.90;;;;;;5010307;28;20511;-53
2023/09/09 02:02:38;;;;;;;11.37;10.23;;;16.30;99.90;;;;;;5011452;28;20973;-53
2023/09/09 02:05:05;;;;;;;11.07;8.93;;;16.30;99.90;;;;;;5010006;28;20499;-53
2023/09/09 02:07:32;;;;;;;13.10;8.57;;;16.30;99.90;;;;;;5008985;28;20501;-54
2023/09/09 02:09:58;;;;;;;9.97;8.90;;;16.20;99.90;;;;;;5010751;28;20472;-53
2023/09/09 02:12:28;;;;;;;10.00;9.00;;;16.20;99.90;;;;;;5011211;28;20894;-53
2023/09/09 02:14:56;;;;;;;11.80;9.10;;;16.10;99.90;;;;;;5010228;28;20491;-55
2023/09/09 02:17:23;;;;;;;12.70;9.17;;;16.10;99.90;;;;;;5002147;28;20521;-54
2023/09/09 02:19:54;;;;;;;13.40;9.93;;;16.10;99.90;;;;;;5011118;28;20491;-54
2023/09/09 02:22:20;;;;;;;11.33;9.57;;;16.00;99.90;;;;;;5008146;28;20487;-54
2023/09/09 02:24:47;;;;;;;11.33;9.23;;;15.90;99.90;;;;;;5018251;28;20499;-53
2023/09/09 02:27:13;;;;;;;10.77;9.07;;;15.90;99.90;;;;;;5013800;28;20499;-54
2023/09/09 02:29:40;;;;;;;10.50;8.97;;;15.90;98.00;;;;;;5007754;28;20587;-54
2023/09/09 02:32:08;;;;;;;12.40;9.77;;;15.80;99.00;;;;;;5016943;28;20471;-53
2023/09/09 02:34:35;;;;;;;8.90;8.13;;;15.80;97.10;;;;;;5009892;28;20498;-54
2023/09/09 02:37:16;;;;;;;17.70;8.90;;;15.70;96.50;;;;;;5009158;28;20562;-55
2023/09/09 02:39:43;;;;;;;9.60;8.60;;;15.70;95.60;;;;;;5011675;28;20459;-53
2023/09/09 02:42:12;;;;;;;12.87;8.77;;;15.70;95.00;;;;;;5008778;28;20491;-54
2023/09/09 02:44:39;;;;;;;10.50;9.50;;;15.60;93.20;;;;;;5010236;28;20466;-54
2023/09/09 02:47:08;;;;;;;9.80;8.73;;;15.60;90.70;;;;;;5009330;28;20494;-54
2023/09/09 02:49:34;;;;;;;11.27;9.00;;;15.70;89.50;;;;;;5007651;28;20561;-53
2023/09/09 02:52:01;;;;;;;11.17;10.07;;;15.70;89.10;;;;;;5014714;28;21017;-54
2023/09/09 02:54:27;;;;;;;13.30;9.20;;;15.70;89.40;;;;;;5013330;28;20838;-54
2023/09/09 02:56:54;;;;;;;9.90;8.90;;;15.80;88.60;;;;;;5012838;28;20507;-54
2023/09/09 02:59:21;;;;;;;11.37;8.67;;;15.80;89.00;;;;;;5014139;28;21031;-54
2023/09/09 03:01:47;;;;;;;11.07;9.97;;;15.80;88.90;;;;;;5014705;28;20499;-53
2023/09/09 03:04:15;;;;;;;9.70;8.70;;;15.80;87.10;;;;;;5012029;28;20542;-54
2023/09/09 03:06:42;;;;;;;10.23;9.23;;;15.80;86.10;;;;;;5008143;28;20547;-54
2023/09/09 03:09:09;;;;;;;10.43;9.27;;;15.80;87.00;;;;;;5014274;28;20495;-53
2023/09/09 03:11:35;;;;;;;9.87;8.87;;;15.80;84.80;;;;;;5012670;28;20502;-53
2023/09/09 03:14:02;;;;;;;12.53;9.10;;;15.80;85.00;;;;;;5015142;28;20483;-54
2023/09/09 03:16:29;;;;;;;11.00;9.90;;;15.80;82.30;;;;;;5011749;28;20494;-52
2023/09/09 03:18:55;;;;;;;9.93;9.03;;;15.80;80.60;;;;;;5014433;28;20914;-54
2023/09/09 03:21:24;;;;;;;12.27;10.20;;;15.80;79.90;;;;;;5008793;28;20886;-53
2023/09/09 03:23:50;;;;;;;11.53;10.43;;;15.80;79.30;;;;;;5013539;28;20479;-53
2023/09/09 03:26:19;;;;;;;10.40;8.63;;;15.80;78.30;;;;;;5012192;28;20494;-54
2023/09/09 03:28:45;;;;;;;13.57;9.97;;;15.80;77.50;;;;;;5014930;28;20563;-53
2023/09/09 03:31:12;;;;;;;13.13;9.73;;;15.80;77.10;;;;;;5013341;28;20463;-54
2023/09/09 03:33:39;;;;;;;15.60;9.27;;;15.90;76.70;;;;;;5012074;28;20495;-53
2023/09/09 03:36:06;;;;;;;13.73;10.33;;;15.90;74.80;;;;;;5012296;28;20565;-53
2023/09/09 03:38:34;;;;;;;17.43;9.83;;;15.90;76.90;;;;;;5012580;28;20475;-53
2023/09/09 03:41:00;;;;;;;14.03;10.13;;;15.90;74.70;;;;;;5010858;28;20977;-53
2023/09/09 03:43:27;;;;;;;18.87;10.27;;;15.90;73.40;;;;;;5004656;28;20548;-54
2023/09/09 03:45:57;;;;;;;12.00;10.23;;;16.00;72.30;;;;;;5015197;28;20550;-53
2023/09/09 03:48:24;;;;;;;11.27;9.10;;;16.00;75.90;;;;;;5006068;28;20541;-54
2023/09/09 03:50:51;;;;;;;16.50;9.50;;;16.00;75.90;;;;;;5014557;28;20475;-53
2023/09/09 03:53:17;;;;;;;10.67;9.37;;;16.00;76.00;;;;;;5015390;28;20475;-54
2023/09/09 03:55:45;;;;;;;11.73;9.00;;;16.00;76.00;;;;;;5014044;28;21023;-53
2023/09/09 03:58:12;;;;;;;10.20;9.27;;;16.00;75.70;;;;;;5010199;28;20515;-53
2023/09/09 04:00:38;;;;;;;10.13;9.13;;;16.00;75.80;;;;;;5015626;28;20545;-53
2023/09/09 04:03:05;;;;;;;13.23;10.07;;;16.10;73.10;;;;;;5009948;28;20495;-52
2023/09/09 04:05:31;;;;;;;12.70;10.37;;;16.10;67.70;;;;;;5013645;28;20494;-51
2023/09/09 04:08:03;;;;;;;10.13;8.97;;;16.20;68.90;;;;;;5013538;28;20503;-52
2023/09/09 04:10:29;;;;;;;13.50;10.00;;;16.20;69.90;;;;;;5012608;28;20814;-51
2023/09/09 04:12:57;;;;;;;10.57;9.07;;;16.30;73.70;;;;;;5011275;28;20906;-52
2023/09/09 04:15:24;;;;;;;10.73;9.73;;;16.30;73.00;;;;;;5006219;28;20551;-51
2023/09/09 04:17:50;;;;;;;12.43;11.13;;;16.30;72.70;;;;;;5008476;28;20522;-51
2023/09/09 04:20:17;;;;;;;11.37;10.17;;;16.30;75.00;;;;;;5010365;28;20488;-51
2023/09/09 04:22:43;;;;;;;11.57;9.83;;;16.30;75.20;;;;;;5008607;28;20498;-52
2023/09/09 04:25:10;;;;;;;13.57;9.90;;;16.30;76.10;;;;;;5017880;28;20593;-52
2023/09/09 04:27:36;;;;;;;11.03;9.30;;;16.40;77.20;;;;;;5011972;28;20693;-51
2023/09/09 04:30:05;;;;;;;20.80;9.80;;;16.40;77.80;;;;;;5008267;28;20548;-51
2023/09/09 04:32:34;;;;;;;17.63;10.03;;;16.50;75.40;;;;;;5012661;28;20960;-52
2023/09/09 04:35:01;;;;;;;12.40;11.20;;;16.50;76.40;;;;;;5011743;28;20585;-51
2023/09/09 04:37:30;;;;;;;13.77;10.50;;;16.60;78.40;;;;;;5012841;28;20534;-52
2023/09/09 04:39:56;;;;;;;11.80;9.47;;;16.60;80.20;;;;;;5011916;28;20492;-51
2023/09/09 04:42:23;;;;;;;12.43;11.03;;;16.60;82.70;;;;;;5011937;28;20587;-52
2023/09/09 04:44:50;;;;;;;12.00;10.80;;;16.70;82.10;;;;;;5009986;28;20460;-51
2023/09/09 04:47:18;;;;;;;12.47;11.20;;;16.70;84.20;;;;;;5001903;28;20492;-52
2023/09/09 04:49:45;;;;;;;13.70;10.67;;;16.70;85.10;;;;;;5010411;28;20503;-57
2023/09/09 04:52:11;;;;;;;10.73;9.70;;;16.70;86.90;;;;;;5013532;28;20483;-58
2023/09/09 04:54:38;;;;;;;11.63;10.37;;;16.70;86.40;;;;;;5010547;28;20510;-53
2023/09/09 04:57:05;;;;;;;12.10;10.50;;;16.60;85.70;;;;;;5010322;28;20527;-53
2023/09/09 04:59:33;;;;;;;11.47;10.27;;;16.60;85.10;;;;;;5012504;28;20514;-54
2023/09/09 05:01:59;;;;;;;12.90;11.50;;;16.60;83.70;;;;;;5009043;28;20975;-53
2023/09/09 05:04:27;;;;;;;15.40;10.57;;;16.60;84.20;;;;;;5004436;28;20542;-53
2023/09/09 05:06:54;;;;;;;13.33;10.30;;;16.60;83.40;;;;;;5008938;28;20467;-53
2023/09/09 05:09:21;;;;;;;11.90;10.60;;;16.60;83.00;;;;;;5010528;28;20507;-53
2023/09/09 05:11:47;;;;;;;12.43;11.10;;;16.60;81.60;;;;;;5012237;28;20487;-53
2023/09/09 05:14:14;;;;;;;10.97;9.87;;;16.60;80.80;;;;;;5011169;28;20550;-55
2023/09/09 05:16:40;;;;;;;12.30;11.00;;;16.60;79.90;;;;;;5014810;28;20491;-54
2023/09/09 05:19:07;;;;;;;12.23;10.23;;;16.60;80.40;;;;;;5011689;28;20549;-52
2023/09/09 05:21:35;;;;;;;12.00;10.70;;;16.70;80.20;;;;;;5008498;28;20475;-54
2023/09/09 05:24:02;;;;;;;15.30;11.10;;;16.70;77.40;;;;;;5008451;28;20827;-54
2023/09/09 05:26:29;;;;;;;13.90;10.77;;;16.70;77.80;;;;;;5010977;28;20462;-58
2023/09/09 05:28:55;;;;;;;12.10;10.00;;;16.70;77.10;;;;;;5015163;28;20589;-57
2023/09/09 05:31:22;;;;;;;10.60;9.50;;;16.80;78.20;;;;;;5013667;28;20487;-51
2023/09/09 05:33:48;;;;;;;10.70;9.60;;;16.80;78.20;;;;;;5011686;28;20464;-58
2023/09/09 05:36:15;;;;;;;13.60;10.90;;;16.90;80.20;;;;;;5007857;28;20492;-52
2023/09/09 05:38:43;;;;;;;16.30;11.60;;;16.90;80.70;;;;;;5015060;28;20519;-53
2023/09/09 05:41:09;;;;;;;14.63;10.37;;;17.00;82.60;;;;;;5012454;28;20525;-52
2023/09/09 05:43:36;;;;;;;12.70;10.37;;;17.00;83.00;;;;;;5011282;28;20839;-52
2023/09/09 05:46:03;;;;;;;12.17;10.83;;;17.00;82.60;;;;;;5010822;28;20895;-52
2023/09/09 05:48:30;;;;;;;14.40;11.03;;;17.10;81.60;;;;;;5016658;28;20542;-52
2023/09/09 05:50:57;;;;;;;15.17;10.30;;;17.20;84.60;;;;;;5011665;28;20909;-51
2023/09/09 05:53:23;;;;;;;12.47;11.00;;;17.30;86.10;;;;;;5010154;28;21027;-52
2023/09/09 05:55:51;;;;;;;13.50;11.40;;;17.40;92.70;;;;;;5008311;28;20984;-51
2023/09/09 05:58:18;;;;;;;11.97;10.43;;;17.50;92.20;;;;;;5011113;28;20511;-51
2023/09/09 06:00:44;;;;;;;21.53;10.90;;;17.60;99.70;;;;;;5012488;28;20472;-51
2023/09/09 06:03:11;;;;;;;13.87;10.67;;;17.60;99.90;;;;;;5010285;28;20557;-52
2023/09/09 06:05:37;;;;;;;13.80;10.10;;;17.70;99.90;;;;;;5014980;28;20973;-51
2023/09/09 06:08:04;;;;;;;11.30;9.87;;;17.80;99.90;;;;;;5009883;28;20545;-53
2023/09/09 06:10:31;;;;;;;12.20;11.00;;;17.90;99.90;;;;;;5009210;23;20516;-51
2023/09/09 06:12:59;;;;;;;12.83;10.60;;;18.00;99.90;;;;;;4987607;28;20496;-50
2023/09/09 06:15:25;;;;;;;13.10;10.27;;;18.00;99.90;;;;;;4988956;28;21001;-51
2023/09/09 06:17:52;;;;;;;10.97;9.80;;;18.00;99.90;;;;;;4990179;28;21048;-51
2023/09/09 06:20:18;;;;;;;14.80;9.90;;;18.10;99.90;;;;;;4990995;28;21009;-50
2023/09/09 06:22:45;;;;;;;15.23;10.77;;;18.20;99.90;;;;;;4990002;28;20504;-51
2023/09/09 06:25:11;;;;;;;19.40;10.83;;;18.20;99.90;;;;;;4990543;28;20492;-52
2023/09/09 06:27:38;;;;;;;11.07;9.73;;;18.20;99.90;;;;;;4988234;28;20468;-51
2023/09/09 06:30:07;;;;;;;15.37;10.27;;;18.30;99.90;;;;;;4991129;28;20519;-52
2023/09/09 06:32:34;;;;;;;12.20;10.00;;;18.40;99.90;;;;;;4994270;28;20455;-50
2023/09/09 06:35:00;;;;;;;15.47;10.77;;;18.50;99.90;;;;;;4993300;28;20492;-51
2023/09/09 06:37:27;;;;;;;18.60;11.23;;;18.60;99.90;;;;;;4992701;28;20507;-52
2023/09/09 06:39:53;;;;;;;14.50;11.23;;;18.60;99.90;;;;;;4997882;28;20484;-51
2023/09/09 06:42:22;;;;;;;15.20;11.07;;;18.80;99.90;;;;;;4998576;28;20496;-51
2023/09/09 06:44:49;;;;;;;11.77;10.60;;;18.80;99.90;;;;;;4991866;28;20529;-51
2023/09/09 06:47:17;;;;;;;10.17;8.80;;;18.80;99.90;;;;;;4993203;28;20853;-50
2023/09/09 06:49:43;;;;;;;11.83;10.63;;;18.80;99.90;;;;;;4997401;28;20496;-51
2023/09/09 06:52:10;;;;;;;11.50;9.73;;;18.80;99.90;;;;;;4990455;28;20495;-52
2023/09/09 06:54:36;;;;;;;13.60;10.90;;;18.80;99.90;;;;;;4990734;28;20500;-50
2023/09/09 06:57:04;;;;;;;14.53;10.90;;;18.90;99.90;;;;;;4991244;28;20978;-51
2023/09/09 06:59:31;;;;;;;11.33;10.13;;;18.90;99.90;;;;;;4988106;28;20939;-51
2023/09/09 07:01:57;;;;;;;15.60;10.20;;;18.90;99.90;;;;;;4986291;28;20496;-51
2023/09/09 07:04:25;;;;;;;11.73;10.00;;;19.00;99.90;;;;;;4984432;28;20922;-52
2023/09/09 07:06:52;;;;;;;12.80;9.43;;;19.10;99.90;;;;;;4988885;28;20499;-51
2023/09/09 07:09:20;;;;;;;12.30;9.57;;;19.20;99.90;;;;;;4989709;28;20547;-53
2023/09/09 07:11:47;;;;;;;13.67;10.33;;;19.40;99.90;;;;;;4988028;28;20487;-51
2023/09/09 07:14:13;;;;;;;11.23;10.03;;;19.40;99.90;;;;;;4989136;28;21031;-51
2023/09/09 07:16:40;;;;;;;11.97;10.77;;;19.50;99.90;;;;;;4985264;28;20922;-51
2023/09/09 07:19:06;;;;;;;11.53;9.87;;;19.60;99.90;;;;;;4990165;28;20554;-51
2023/09/09 07:21:34;;;;;;;12.73;8.73;;;19.70;99.90;;;;;;4991422;28;20936;-51
2023/09/09 07:24:01;;;;;;;10.60;9.50;;;19.80;99.90;;;;;;4991079;28;20491;-52
2023/09/09 07:26:27;;;;;;;10.20;9.17;;;19.80;99.90;;;;;;4983638;28;20496;-53
2023/09/09 07:28:54;;;;;;;10.30;9.30;;;20.00;99.90;;;;;;4999821;28;20527;-51
2023/09/09 07:31:20;;;;;;;14.13;10.10;;;20.10;99.90;;;;;;4993919;28;20521;-52
2023/09/09 07:33:47;;;;;;;11.03;9.87;;;20.20;99.90;;;;;;4996432;28;20510;-53
2023/09/09 07:36:14;;;;;;;10.90;9.53;;;20.30;99.90;;;;;;4992333;28;20988;-52
2023/09/09 07:38:41;;;;;;;12.50;9.27;;;20.40;99.90;;;;;;4987205;28;20570;-51
2023/09/09 07:41:08;;;;;;;22.93;9.93;;;20.40;99.90;;;;;;4996872;28;20512;-52
2023/09/09 07:43:34;;;;;;;11.00;9.90;;;20.50;99.90;;;;;;5000085;28;20864;-51
2023/09/09 07:46:01;;;;;;;12.90;9.60;;;20.60;99.90;;;;;;4997009;28;20518;-53
2023/09/09 07:48:27;;;;;;;12.77;9.53;;;20.70;99.90;;;;;;4996327;28;20483;-51
2023/09/09 07:50:55;;;;;;;15.53;11.47;;;20.90;99.90;;;;;;4993746;28;20468;-51
2023/09/09 07:53:23;;;;;;;12.03;9.63;;;20.90;99.90;;;;;;4996050;28;20830;-51
2023/09/09 07:55:52;;;;;;;17.87;10.73;;;21.00;99.90;;;;;;4992881;28;20460;-51
2023/09/09 07:58:19;;;;;;;13.43;9.90;;;21.10;99.90;;;;;;4999647;28;21048;-51
2023/09/09 08:00:46;;;;;;;16.93;9.33;;;21.20;82.10;;;;;;4989191;28;21279;-50
2023/09/09 08:03:13;;;;;;;12.93;8.97;;;21.50;37.30;;;;;;4993153;28;20859;-50
2023/09/09 08:05:40;;;;;;;16.57;9.73;;;21.70;48.50;;;;;;4994576;28;20437;-51
2023/09/09 08:08:07;;;;;;;12.13;8.27;;;21.90;68.50;;;;;;4987377;28;20484;-52
2023/09/09 08:10:33;;;;;;;12.07;9.00;;;22.30;73.70;;;;;;4988858;28;20678;-50
2023/09/09 08:13:01;;;;;;;8.43;7.73;;;22.60;93.70;;;;;;4988068;28;20962;-52
2023/09/09 08:15:28;;;;;;;10.20;8.47;;;22.80;99.90;;;;;;4991728;28;20461;-50
2023/09/09 08:17:54;;;;;;;10.40;8.60;;;22.80;99.90;;;;;;4991314;28;20595;-51
2023/09/09 08:20:21;;;;;;;14.47;7.60;;;22.70;99.90;;;;;;4992646;28;20516;-51
2023/09/09 08:22:49;;;;;;;10.43;8.07;;;22.70;99.90;;;;;;4990664;28;20491;-51
2023/09/09 08:25:15;;;;;;;8.70;7.90;;;22.70;99.90;;;;;;5000688;28;20496;-51
2023/09/09 08:27:42;;;;;;;8.97;8.07;;;22.70;99.90;;;;;;5000003;28;20521;-51
2023/09/09 08:30:11;;;;;;;8.77;7.73;;;22.80;99.90;;;;;;4992640;28;20595;-50
2023/09/09 08:32:37;;;;;;;8.33;7.33;;;22.80;99.90;;;;;;4990050;28;20516;-50
2023/09/09 08:35:05;;;;;;;12.83;8.30;;;23.00;99.90;;;;;;4992003;28;20501;-50
2023/09/09 08:37:32;;;;;;;8.20;7.40;;;23.00;99.90;;;;;;5000327;28;20488;-51
2023/09/09 08:39:58;;;;;;;12.43;7.87;;;23.20;99.90;;;;;;5001188;28;20532;-51
2023/09/09 08:42:37;;;;;;;22.17;8.07;;;23.30;99.90;;;;;;4993412;28;20501;-51
2023/09/09 08:45:13;;;;;;;11.53;7.47;;;23.40;99.90;;;;;;4980631;28;20520;-51
2023/09/09 08:47:41;;;;;;;10.07;7.40;;;23.50;99.90;;;;;;4985795;28;20487;-50
2023/09/09 08:50:10;;;;;;;14.57;7.40;;;23.70;99.90;;;;;;4994143;28;20508;-52
2023/09/09 08:52:37;;;;;;;10.63;6.87;;;23.90;99.90;;;;;;5001359;28;20449;-51
2023/09/09 08:55:04;;;;;;;11.37;6.80;;;24.10;99.90;;;;;;4992582;28;20492;-51
2023/09/09 08:57:32;;;;;;;9.50;6.80;;;24.30;99.90;;;;;;4996721;28;20488;-51
2023/09/09 09:00:02;;;;;;;10.03;5.80;;;24.40;99.90;;;;;;5008900;28;20537;-52
2023/09/09 09:02:30;;;;;;;11.73;6.60;;;24.50;99.90;;;;;;5001852;28;20475;-51
2023/09/09 09:04:57;;;;;;;10.33;7.20;;;24.70;99.90;;;;;;4993901;28;20445;-51
2023/09/09 09:07:27;;;;;;;10.03;7.10;;;24.80;99.90;;;;;;4991252;28;20484;-50
2023/09/09 09:09:54;;;;;;;7.80;7.10;;;25.00;99.90;;;;;;4999194;28;20497;-52
2023/09/09 09:12:21;;;;;;;8.73;6.90;;;25.10;99.90;;;;;;4993109;28;20469;-51
2023/09/09 09:14:49;;;;;;;13.27;6.70;;;25.30;99.90;;;;;;4998672;28;20597;-50
2023/09/09 09:17:16;;;;;;;12.67;6.80;;;25.40;99.90;;;;;;4999871;28;20894;-51
2023/09/09 09:19:44;;;;;;;10.10;7.77;;;25.40;99.90;;;;;;5000394;28;20482;-51
2023/09/09 09:22:13;;;;;;;8.83;5.97;;;25.50;99.90;;;;;;4997998;28;20590;-51
2023/09/09 09:24:44;;;;;;;9.30;6.50;;;25.60;99.90;;;;;;5002131;28;21027;-51
2023/09/09 09:27:11;;;;;;;15.80;6.70;;;25.70;99.90;;;;;;5002813;28;20507;-51
2023/09/09 09:29:39;;;;;;;11.23;7.30;;;25.80;99.90;;;;;;5005070;28;20542;-51
2023/09/09 09:32:06;;;;;;;12.87;6.90;;;25.90;99.90;;;;;;5006416;28;20459;-51
2023/09/09 09:34:34;;;;;;;11.23;6.47;;;25.90;99.90;;;;;;5002366;28;20580;-51
2023/09/09 09:37:09;;;;;;;6.93;6.23;;;26.10;99.90;;;;;;4990473;28;20468;-52
2023/09/09 09:39:35;;;;;;;9.80;6.10;;;26.20;99.90;;;;;;5000596;28;20490;-51
2023/09/09 09:42:02;;;;;;;6.87;6.20;;;26.20;99.90;;;;;;5000976;28;20500;-51
2023/09/09 09:44:29;;;;;;;7.00;5.70;;;26.40;99.90;;;;;;5011388;28;20483;-51
2023/09/09 09:47:01;;;;;;;8.10;5.77;;;26.60;99.90;;;;;;4997520;28;20477;-51
2023/09/09 09:49:35;;;;;;;12.30;6.13;;;26.80;99.90;;;;;;4992399;28;21006;-51
2023/09/09 09:52:03;;;;;;;9.13;5.67;;;27.00;99.90;;;;;;4998673;28;21228;-51
2023/09/09 09:54:31;;;;;;;13.83;6.63;;;26.90;99.90;;;;;;4996724;28;20481;-51
2023/09/09 09:57:00;;;;;;;7.30;5.57;;;27.10;99.90;;;;;;4992278;28;20511;-51
2023/09/09 09:59:29;;;;;;;8.37;6.60;;;27.20;99.90;;;;;;4991958;28;20986;-51
2023/09/09 10:01:56;;;;;;;19.00;6.87;;;27.80;99.90;;;;;;5007461;28;20542;-51
2023/09/09 10:04:25;;;;;;;7.30;6.00;;;28.10;99.90;;;;;;4994223;28;20476;-51
2023/09/09 10:06:55;;;;;;;9.97;5.57;;;28.20;99.90;;;;;;4992055;28;20476;-51
2023/09/09 10:09:31;;;;;;;8.83;5.33;;;28.20;99.90;;;;;;4990749;28;20492;-51
2023/09/09 10:12:03;;;;;;;10.23;5.87;;;28.80;99.90;;;;;;4998434;28;20523;-51
2023/09/09 10:14:31;;;;;;;8.90;5.30;;;29.50;99.90;;;;;;4998327;28;21091;-50
2023/09/09 10:16:58;;;;;;;6.93;5.70;;;29.50;99.90;;;;;;4990508;28;20481;-50
2023/09/09 10:19:25;;;;;;;6.63;5.20;;;30.10;99.90;;;;;;4990430;28;20583;-51
2023/09/09 10:21:54;;;;;;;10.57;5.53;;;29.70;99.90;;;;;;4995262;28;20554;-52
2023/09/09 10:24:23;;;;;;;7.30;5.00;;;30.30;99.90;;;;;;4995001;28;20539;-51
2023/09/09 10:26:50;;;;;;;14.43;6.00;;;31.10;99.90;;;;;;4989279;28;20468;-52
2023/09/09 10:29:18;;;;;;;7.20;4.70;;;31.70;99.90;;;;;;4999949;28;20571;-51
2023/09/09 10:31:45;;;;;;;8.43;5.70;;;32.10;99.90;;;;;;4996075;28;20599;-50
2023/09/09 10:34:15;;;;;;;7.60;5.50;;;31.50;99.90;;;;;;4990283;28;20475;-51
2023/09/09 10:36:44;;;;;;;6.50;4.20;;;32.20;99.90;;;;;;4993324;28;20911;-53
2023/09/09 10:39:13;;;;;;;5.83;5.27;;;32.40;99.90;;;;;;5002756;28;21061;-51
2023/09/09 10:41:42;;;;;;;9.43;5.47;;;32.30;99.90;;;;;;4988380;28;20492;-50
2023/09/09 10:44:08;;;;;;;5.47;4.97;;;32.60;99.90;;;;;;5000348;28;20479;-50
2023/09/09 10:46:37;;;;;;;6.70;4.93;;;33.50;99.90;;;;;;4996706;28;20496;-52
2023/09/09 10:49:03;;;;;;;7.73;5.50;;;32.70;99.90;;;;;;5000879;28;20543;-51
2023/09/09 10:51:30;;;;;;;11.93;4.30;;;31.60;99.90;;;;;;5000733;28;20496;-51
2023/09/09 10:54:09;;;;;;;12.40;4.97;;;31.90;99.90;;;;;;5011740;28;20471;-52
2023/09/09 10:56:46;;;;;;;13.10;4.83;;;31.90;99.90;;;;;;4986630;28;20479;-52
2023/09/09 10:59:16;;;;;;;8.20;5.40;;;31.20;99.90;;;;;;4990980;28;20500;-51
2023/09/09 11:01:43;;;;;;;5.27;4.60;;;30.90;99.90;;;;;;4990859;28;20469;-51
2023/09/09 11:04:19;;;;;;;4.80;4.30;;;31.30;99.90;;;;;;4996757;28;20573;-53
2023/09/09 11:06:59;;;;;;;6.53;4.73;;;31.30;99.90;;;;;;4983612;28;20846;-50
2023/09/09 11:09:29;;;;;;;6.53;4.50;;;31.20;99.90;;;;;;5007680;28;20475;-51
2023/09/09 11:11:57;;;;;;;4.50;4.10;;;30.80;99.90;;;;;;4989204;28;20551;-52
2023/09/09 11:14:30;;;;;;;7.40;4.97;;;30.90;99.90;;;;;;4993528;28;20978;-51
2023/09/09 11:16:57;;;;;;;5.40;4.63;;;30.80;99.90;;;;;;5002758;28;20483;-52
2023/09/09 11:19:24;;;;;;;10.87;4.73;;;30.60;99.90;;;;;;4993364;28;20571;-50
2023/09/09 11:21:52;;;;;;;4.93;4.50;;;30.00;99.90;;;;;;4992789;28;20495;-52
2023/09/09 11:24:20;;;;;;;4.53;4.13;;;29.80;99.90;;;;;;5003021;28;20534;-51
2023/09/09 11:26:48;;;;;;;10.17;3.50;;;29.40;99.90;;;;;;5004664;28;20456;-50
2023/09/09 11:29:17;;;;;;;5.77;3.90;;;29.50;99.90;;;;;;5002955;28;20496;-50
2023/09/09 11:31:43;;;;;;;5.00;4.23;;;29.20;99.90;;;;;;4995221;28;20477;-51
2023/09/09 11:34:10;;;;;;;8.50;4.47;;;29.40;99.90;;;;;;5002233;28;20630;-51
2023/09/09 11:36:36;;;;;;;6.03;4.93;;;29.40;99.90;;;;;;4993233;28;20460;-52
2023/09/09 11:39:03;;;;;;;8.77;4.00;;;29.40;99.90;;;;;;4995604;28;20853;-51
2023/09/09 11:41:32;;;;;;;8.90;3.70;;;29.40;99.90;;;;;;4994456;28;20541;-51
2023/09/09 11:44:01;;;;;;;4.80;4.40;;;29.40;99.90;;;;;;4993520;28;20464;-51
2023/09/09 11:46:36;;;;;;;3.97;3.67;;;29.40;99.90;;;;;;5002587;28;20510;-50
2023/09/09 11:49:03;;;;;;;5.40;4.10;;;29.60;99.90;;;;;;4993094;28;20566;-52
2023/09/09 11:51:29;;;;;;;4.40;3.77;;;30.00;99.90;;;;;;4995192;28;20453;-50
2023/09/09 11:53:56;;;;;;;5.97;4.40;;;30.00;99.90;;;;;;4999271;28;20487;-52
2023/09/09 11:56:23;;;;;;;7.30;4.73;;;30.00;99.90;;;;;;4993156;28;20981;-50
2023/09/09 11:58:50;;;;;;;5.00;4.60;;;30.00;99.90;;;;;;5001247;28;20511;-52
2023/09/09 12:01:19;;;;;;;5.30;4.60;;;30.00;99.90;;;;;;4994733;28;20479;-52
2023/09/09 12:03:48;;;;;;;6.67;4.17;;;30.20;99.90;;;;;;5009124;28;20525;-51
2023/09/09 12:06:16;;;;;;;4.37;3.97;;;30.10;99.90;;;;;;4992308;28;20635;-50
2023/09/09 12:08:43;;;;;;;8.73;4.10;;;30.20;99.90;;;;;;4994825;28;20440;-50
2023/09/09 12:11:12;;;;;;;5.07;3.90;;;30.60;99.90;;;;;;4991136;28;20531;-55
2023/09/09 12:13:38;;;;;;;5.40;4.03;;;30.80;99.90;;;;;;5009118;28;20567;-55
2023/09/09 12:16:08;;;;;;;5.30;4.80;;;30.60;99.90;;;;;;5002547;28;20472;-54
2023/09/09 12:18:34;;;;;;;4.93;4.50;;;30.50;99.90;;;;;;4993998;28;20848;-55
2023/09/09 12:21:06;;;;;;;5.70;4.60;;;30.40;99.90;;;;;;4990892;28;20489;-55
2023/09/09 12:23:35;;;;;;;5.50;4.33;;;30.30;99.90;;;;;;4994465;28;21094;-55
2023/09/09 12:26:09;;;;;;;8.77;4.50;;;30.80;99.90;;;;;;4990713;28;20559;-55
2023/09/09 12:28:36;;;;;;;5.47;4.13;;;31.10;99.90;;;;;;4992537;28;20469;-54
2023/09/09 12:31:03;;;;;;;6.63;4.07;;;31.40;99.90;;;;;;4990932;28;20571;-55
2023/09/09 12:33:40;;;;;;;4.83;3.60;;;31.50;99.90;;;;;;4993994;28;20548;-55
2023/09/09 12:36:16;;;;;;;6.03;3.63;;;31.80;99.90;;;;;;4993759;28;20448;-55
2023/09/09 12:38:44;;;;;;;4.40;4.00;;;31.90;99.90;;;;;;4993409;28;20481;-54
2023/09/09 12:41:11;;;;;;;10.03;4.63;;;32.10;99.90;;;;;;5001273;28;20483;-56
2023/09/09 12:43:38;;;;;;;5.17;4.77;;;32.60;99.90;;;;;;4995666;28;20488;-56